sensor_id;sensor_type;location;lat;lon;timestamp;P1;durP1;ratioP1;P2;durP2;ratioP2
1204;SDS011;592;48.764;9.174;2023-04-24T00:00:49;4.90;;;1.40;;
1204;SDS011;592;48.764;9.174;2023-04-24T00:03:17;4.00;;;1.20;;
1204;SDS011;592;48.764;9.174;2023-04-24T00:05:46;4.47;;;2.07;;
1204;SDS011;592;48.764;9.174;2023-04-24T00:08:12;3.83;;;1.37;;
1204;SDS011;592;48.764;9.174;2023-04-24T00:10:39;4.93;;;1.50;;
1204;SDS011;592;48.764;9.174;2023-04-24T00:13:06;3.47;;;1.37;;
1204;SDS011;592;48.764;9.174;2023-04-24T00:15:33;3.47;;;1.13;;
1204;SDS011;592;48.764;9.174;2023-04-24T00:18:01;5.83;;;1.70;;
1204;SDS011;592;48.764;9.174;2023-04-24T00:20:28;2.90;;;1.20;;
1204;SDS011;592;48.764;9.174;2023-04-24T00:22:57;4.27;;;1.30;;
1204;SDS011;592;48.764;9.174;2023-04-24T00:25:24;3.43;;;1.30;;
1204;SDS011;592;48.764;9.174;2023-04-24T00:27:50;3.73;;;1.30;;
1204;SDS011;592;48.764;9.174;2023-04-24T00:30:17;4.13;;;1.40;;
1204;SDS011;592;48.764;9.174;2023-04-24T00:32:44;3.40;;;1.40;;
1204;SDS011;592;48.764;9.174;2023-04-24T00:35:12;5.00;;;1.20;;
1204;SDS011;592;48.764;9.174;2023-04-24T00:37:39;4.40;;;1.47;;
1204;SDS011;592;48.764;9.174;2023-04-24T00:40:07;3.47;;;1.33;;
1204;SDS011;592;48.764;9.174;2023-04-24T00:42:34;3.10;;;1.40;;
1204;SDS011;592;48.764;9.174;2023-04-24T00:45:01;4.03;;;1.20;;
1204;SDS011;592;48.764;9.174;2023-04-24T00:47:29;2.83;;;1.10;;
1204;SDS011;592;48.764;9.174;2023-04-24T00:49:56;3.33;;;1.10;;
1204;SDS011;592;48.764;9.174;2023-04-24T00:52:24;5.00;;;1.60;;
1204;SDS011;592;48.764;9.174;2023-04-24T00:54:51;3.10;;;1.20;;
1204;SDS011;592;48.764;9.174;2023-04-24T00:57:18;5.97;;;1.43;;
1204;SDS011;592;48.764;9.174;2023-04-24T00:59:45;3.17;;;1.33;;
1204;SDS011;592;48.764;9.174;2023-04-24T01:02:12;6.17;;;1.30;;
1204;SDS011;592;48.764;9.174;2023-04-24T01:04:40;3.40;;;1.20;;
1204;SDS011;592;48.764;9.174;2023-04-24T01:07:07;3.63;;;1.27;;
1204;SDS011;592;48.764;9.174;2023-04-24T01:09:37;6.63;;;1.40;;
1204;SDS011;592;48.764;9.174;2023-04-24T01:12:06;4.83;;;1.20;;
1204;SDS011;592;48.764;9.174;2023-04-24T01:14:33;3.13;;;1.10;;
1204;SDS011;592;48.764;9.174;2023-04-24T01:17:00;3.17;;;1.40;;
1204;SDS011;592;48.764;9.174;2023-04-24T01:19:27;5.93;;;1.20;;
1204;SDS011;592;48.764;9.174;2023-04-24T01:21:54;3.03;;;1.37;;
1204;SDS011;592;48.764;9.174;2023-04-24T01:24:25;4.13;;;1.23;;
1204;SDS011;592;48.764;9.174;2023-04-24T01:26:52;4.27;;;1.30;;
1204;SDS011;592;48.764;9.174;2023-04-24T01:29:20;3.83;;;1.30;;
1204;SDS011;592;48.764;9.174;2023-04-24T01:31:47;3.10;;;1.30;;
1204;SDS011;592;48.764;9.174;2023-04-24T01:34:14;3.80;;;1.20;;
1204;SDS011;592;48.764;9.174;2023-04-24T01:36:42;3.53;;;1.10;;
1204;SDS011;592;48.764;9.174;2023-04-24T01:39:11;4.10;;;1.53;;
1204;SDS011;592;48.764;9.174;2023-04-24T01:41:39;2.93;;;1.10;;
1204;SDS011;592;48.764;9.174;2023-04-24T01:44:06;3.90;;;1.50;;
1204;SDS011;592;48.764;9.174;2023-04-24T01:46:33;4.23;;;1.50;;
1204;SDS011;592;48.764;9.174;2023-04-24T01:49:00;3.37;;;1.17;;
1204;SDS011;592;48.764;9.174;2023-04-24T01:51:28;3.50;;;1.27;;
1204;SDS011;592;48.764;9.174;2023-04-24T01:53:55;3.40;;;1.33;;
1204;SDS011;592;48.764;9.174;2023-04-24T01:56:21;3.20;;;1.40;;
1204;SDS011;592;48.764;9.174;2023-04-24T01:58:50;6.47;;;1.30;;
1204;SDS011;592;48.764;9.174;2023-04-24T02:01:18;6.37;;;1.00;;
1204;SDS011;592;48.764;9.174;2023-04-24T02:03:46;3.47;;;1.27;;
1204;SDS011;592;48.764;9.174;2023-04-24T02:06:12;5.27;;;1.63;;
1204;SDS011;592;48.764;9.174;2023-04-24T02:08:39;4.90;;;1.30;;
1204;SDS011;592;48.764;9.174;2023-04-24T02:11:06;3.87;;;1.30;;
1204;SDS011;592;48.764;9.174;2023-04-24T02:13:34;2.90;;;1.37;;
1204;SDS011;592;48.764;9.174;2023-04-24T02:16:02;4.20;;;1.30;;
1204;SDS011;592;48.764;9.174;2023-04-24T02:18:29;4.73;;;1.53;;
1204;SDS011;592;48.764;9.174;2023-04-24T02:20:55;4.77;;;1.53;;
1204;SDS011;592;48.764;9.174;2023-04-24T02:23:22;2.90;;;1.20;;
1204;SDS011;592;48.764;9.174;2023-04-24T02:25:49;4.27;;;1.27;;
1204;SDS011;592;48.764;9.174;2023-04-24T02:28:15;3.13;;;1.37;;
1204;SDS011;592;48.764;9.174;2023-04-24T02:30:42;2.77;;;1.07;;
1204;SDS011;592;48.764;9.174;2023-04-24T02:33:10;3.33;;;1.13;;
1204;SDS011;592;48.764;9.174;2023-04-24T02:35:37;3.33;;;1.37;;
1204;SDS011;592;48.764;9.174;2023-04-24T02:38:04;3.50;;;1.30;;
1204;SDS011;592;48.764;9.174;2023-04-24T02:40:31;3.77;;;1.20;;
1204;SDS011;592;48.764;9.174;2023-04-24T02:42:58;3.00;;;1.10;;
1204;SDS011;592;48.764;9.174;2023-04-24T02:45:24;5.80;;;1.60;;
1204;SDS011;592;48.764;9.174;2023-04-24T02:47:51;3.53;;;1.43;;
1204;SDS011;592;48.764;9.174;2023-04-24T02:50:19;3.40;;;1.20;;
1204;SDS011;592;48.764;9.174;2023-04-24T02:52:46;4.37;;;1.20;;
1204;SDS011;592;48.764;9.174;2023-04-24T02:55:12;3.77;;;1.50;;
1204;SDS011;592;48.764;9.174;2023-04-24T02:57:39;3.30;;;1.23;;
1204;SDS011;592;48.764;9.174;2023-04-24T03:00:06;4.33;;;1.80;;
1204;SDS011;592;48.764;9.174;2023-04-24T03:02:34;3.17;;;1.27;;
1204;SDS011;592;48.764;9.174;2023-04-24T03:05:01;6.33;;;1.53;;
1204;SDS011;592;48.764;9.174;2023-04-24T03:07:29;5.53;;;1.47;;
1204;SDS011;592;48.764;9.174;2023-04-24T03:09:57;3.83;;;1.30;;
1204;SDS011;592;48.764;9.174;2023-04-24T03:12:24;2.90;;;1.10;;
1204;SDS011;592;48.764;9.174;2023-04-24T03:14:50;3.00;;;1.30;;
1204;SDS011;592;48.764;9.174;2023-04-24T03:17:17;4.10;;;1.50;;
1204;SDS011;592;48.764;9.174;2023-04-24T03:19:44;3.87;;;1.30;;
1204;SDS011;592;48.764;9.174;2023-04-24T03:22:11;3.17;;;1.23;;
1204;SDS011;592;48.764;9.174;2023-04-24T03:24:39;4.73;;;1.20;;
1204;SDS011;592;48.764;9.174;2023-04-24T03:27:06;3.40;;;1.30;;
1204;SDS011;592;48.764;9.174;2023-04-24T03:29:33;4.93;;;1.43;;
1204;SDS011;592;48.764;9.174;2023-04-24T03:31:59;3.43;;;1.30;;
1204;SDS011;592;48.764;9.174;2023-04-24T03:34:26;3.37;;;1.33;;
1204;SDS011;592;48.764;9.174;2023-04-24T03:36:53;3.17;;;1.03;;
1204;SDS011;592;48.764;9.174;2023-04-24T03:39:19;3.47;;;1.10;;
1204;SDS011;592;48.764;9.174;2023-04-24T03:41:47;9.27;;;1.10;;
1204;SDS011;592;48.764;9.174;2023-04-24T03:44:14;2.60;;;1.10;;
1204;SDS011;592;48.764;9.174;2023-04-24T03:46:41;3.30;;;1.30;;
1204;SDS011;592;48.764;9.174;2023-04-24T03:49:07;2.90;;;1.00;;
1204;SDS011;592;48.764;9.174;2023-04-24T03:51:34;4.87;;;1.23;;
1204;SDS011;592;48.764;9.174;2023-04-24T03:54:01;5.93;;;1.40;;
1204;SDS011;592;48.764;9.174;2023-04-24T03:56:28;2.80;;;0.97;;
1204;SDS011;592;48.764;9.174;2023-04-24T03:58:56;4.00;;;1.30;;
1204;SDS011;592;48.764;9.174;2023-04-24T04:01:23;3.60;;;1.17;;
1204;SDS011;592;48.764;9.174;2023-04-24T04:03:50;2.80;;;1.20;;
1204;SDS011;592;48.764;9.174;2023-04-24T04:06:16;3.10;;;1.10;;
1204;SDS011;592;48.764;9.174;2023-04-24T04:08:44;3.10;;;1.10;;
1204;SDS011;592;48.764;9.174;2023-04-24T04:11:11;4.10;;;1.17;;
1204;SDS011;592;48.764;9.174;2023-04-24T04:13:37;5.73;;;1.00;;
1204;SDS011;592;48.764;9.174;2023-04-24T04:16:06;5.10;;;1.30;;
1204;SDS011;592;48.764;9.174;2023-04-24T04:18:32;3.47;;;1.33;;
1204;SDS011;592;48.764;9.174;2023-04-24T04:20:59;3.53;;;1.10;;
1204;SDS011;592;48.764;9.174;2023-04-24T04:23:26;4.43;;;1.33;;
1204;SDS011;592;48.764;9.174;2023-04-24T04:25:53;4.00;;;1.60;;
1204;SDS011;592;48.764;9.174;2023-04-24T04:28:20;3.20;;;1.20;;
1204;SDS011;592;48.764;9.174;2023-04-24T04:30:47;3.43;;;1.80;;
1204;SDS011;592;48.764;9.174;2023-04-24T04:33:15;3.57;;;1.47;;
1204;SDS011;592;48.764;9.174;2023-04-24T04:35:43;3.03;;;1.30;;
1204;SDS011;592;48.764;9.174;2023-04-24T04:38:10;3.00;;;1.17;;
1204;SDS011;592;48.764;9.174;2023-04-24T04:40:36;3.10;;;1.33;;
1204;SDS011;592;48.764;9.174;2023-04-24T04:43:03;6.43;;;1.53;;
1204;SDS011;592;48.764;9.174;2023-04-24T04:45:30;3.40;;;1.60;;
1204;SDS011;592;48.764;9.174;2023-04-24T04:47:57;3.33;;;1.70;;
1204;SDS011;592;48.764;9.174;2023-04-24T04:50:27;4.40;;;1.50;;
1204;SDS011;592;48.764;9.174;2023-04-24T04:52:53;4.70;;;1.50;;
1204;SDS011;592;48.764;9.174;2023-04-24T04:55:20;3.80;;;1.90;;
1204;SDS011;592;48.764;9.174;2023-04-24T04:57:47;3.10;;;1.30;;
1204;SDS011;592;48.764;9.174;2023-04-24T05:00:14;3.00;;;1.33;;
1204;SDS011;592;48.764;9.174;2023-04-24T05:02:41;5.07;;;1.37;;
1204;SDS011;592;48.764;9.174;2023-04-24T05:05:08;3.70;;;1.50;;
1204;SDS011;592;48.764;9.174;2023-04-24T05:07:36;3.30;;;1.40;;
1204;SDS011;592;48.764;9.174;2023-04-24T05:10:03;3.73;;;1.63;;
1204;SDS011;592;48.764;9.174;2023-04-24T05:12:30;3.30;;;1.60;;
1204;SDS011;592;48.764;9.174;2023-04-24T05:14:57;3.67;;;1.53;;
1204;SDS011;592;48.764;9.174;2023-04-24T05:17:24;4.90;;;2.00;;
1204;SDS011;592;48.764;9.174;2023-04-24T05:19:50;3.53;;;1.67;;
1204;SDS011;592;48.764;9.174;2023-04-24T05:22:17;4.03;;;1.77;;
1204;SDS011;592;48.764;9.174;2023-04-24T05:24:47;3.50;;;1.73;;
1204;SDS011;592;48.764;9.174;2023-04-24T05:27:13;3.50;;;1.50;;
1204;SDS011;592;48.764;9.174;2023-04-24T05:29:40;3.10;;;1.60;;
1204;SDS011;592;48.764;9.174;2023-04-24T05:32:07;5.50;;;1.60;;
1204;SDS011;592;48.764;9.174;2023-04-24T05:34:33;5.13;;;1.90;;
1204;SDS011;592;48.764;9.174;2023-04-24T05:37:01;3.10;;;1.57;;
1204;SDS011;592;48.764;9.174;2023-04-24T05:39:28;3.30;;;1.60;;
1204;SDS011;592;48.764;9.174;2023-04-24T05:41:56;3.33;;;1.50;;
1204;SDS011;592;48.764;9.174;2023-04-24T05:44:23;4.20;;;1.60;;
1204;SDS011;592;48.764;9.174;2023-04-24T05:46:50;4.97;;;1.80;;
1204;SDS011;592;48.764;9.174;2023-04-24T05:49:17;3.40;;;1.50;;
1204;SDS011;592;48.764;9.174;2023-04-24T05:51:44;3.63;;;1.80;;
1204;SDS011;592;48.764;9.174;2023-04-24T05:54:10;3.50;;;1.83;;
1204;SDS011;592;48.764;9.174;2023-04-24T05:56:37;5.00;;;1.80;;
1204;SDS011;592;48.764;9.174;2023-04-24T05:59:05;4.07;;;1.90;;
1204;SDS011;592;48.764;9.174;2023-04-24T06:01:32;3.33;;;1.63;;
1204;SDS011;592;48.764;9.174;2023-04-24T06:03:59;4.13;;;1.70;;
1204;SDS011;592;48.764;9.174;2023-04-24T06:06:26;3.67;;;2.10;;
1204;SDS011;592;48.764;9.174;2023-04-24T06:08:53;3.90;;;2.00;;
1204;SDS011;592;48.764;9.174;2023-04-24T06:11:20;3.90;;;2.13;;
1204;SDS011;592;48.764;9.174;2023-04-24T06:13:47;4.20;;;1.87;;
1204;SDS011;592;48.764;9.174;2023-04-24T06:16:21;6.40;;;2.30;;
1204;SDS011;592;48.764;9.174;2023-04-24T06:18:51;3.70;;;2.00;;
1204;SDS011;592;48.764;9.174;2023-04-24T06:21:33;4.07;;;2.30;;
1204;SDS011;592;48.764;9.174;2023-04-24T06:24:00;6.10;;;2.10;;
1204;SDS011;592;48.764;9.174;2023-04-24T06:26:27;3.70;;;2.23;;
1204;SDS011;592;48.764;9.174;2023-04-24T06:28:54;3.70;;;2.10;;
1204;SDS011;592;48.764;9.174;2023-04-24T06:31:22;3.80;;;1.80;;
1204;SDS011;592;48.764;9.174;2023-04-24T06:33:49;5.00;;;2.20;;
1204;SDS011;592;48.764;9.174;2023-04-24T06:36:16;5.20;;;2.40;;
1204;SDS011;592;48.764;9.174;2023-04-24T06:38:46;7.50;;;2.63;;
1204;SDS011;592;48.764;9.174;2023-04-24T06:41:13;4.17;;;2.30;;
1204;SDS011;592;48.764;9.174;2023-04-24T06:43:39;4.23;;;2.37;;
1204;SDS011;592;48.764;9.174;2023-04-24T06:46:06;5.50;;;2.60;;
1204;SDS011;592;48.764;9.174;2023-04-24T06:48:34;4.47;;;2.40;;
1204;SDS011;592;48.764;9.174;2023-04-24T06:51:01;4.70;;;2.50;;
1204;SDS011;592;48.764;9.174;2023-04-24T06:53:28;4.80;;;2.40;;
1204;SDS011;592;48.764;9.174;2023-04-24T06:55:55;4.90;;;2.50;;
1204;SDS011;592;48.764;9.174;2023-04-24T06:58:23;7.30;;;2.30;;
1204;SDS011;592;48.764;9.174;2023-04-24T07:00:50;5.07;;;2.10;;
1204;SDS011;592;48.764;9.174;2023-04-24T07:03:17;3.70;;;2.30;;
1204;SDS011;592;48.764;9.174;2023-04-24T07:05:45;4.40;;;2.53;;
1204;SDS011;592;48.764;9.174;2023-04-24T07:08:12;4.83;;;2.20;;
1204;SDS011;592;48.764;9.174;2023-04-24T07:10:39;6.47;;;2.80;;
1204;SDS011;592;48.764;9.174;2023-04-24T07:13:06;5.17;;;2.57;;
1204;SDS011;592;48.764;9.174;2023-04-24T07:15:33;4.93;;;2.57;;
1204;SDS011;592;48.764;9.174;2023-04-24T07:18:00;4.17;;;2.37;;
1204;SDS011;592;48.764;9.174;2023-04-24T07:20:27;5.23;;;2.40;;
1204;SDS011;592;48.764;9.174;2023-04-24T07:22:55;6.07;;;2.40;;
1204;SDS011;592;48.764;9.174;2023-04-24T07:25:21;4.40;;;2.60;;
1204;SDS011;592;48.764;9.174;2023-04-24T07:27:48;5.33;;;2.17;;
1204;SDS011;592;48.764;9.174;2023-04-24T07:30:15;4.43;;;2.20;;
1204;SDS011;592;48.764;9.174;2023-04-24T07:32:42;4.23;;;2.10;;
1204;SDS011;592;48.764;9.174;2023-04-24T07:35:09;5.30;;;2.23;;
1204;SDS011;592;48.764;9.174;2023-04-24T07:37:35;3.60;;;2.00;;
1204;SDS011;592;48.764;9.174;2023-04-24T07:40:04;4.90;;;2.03;;
1204;SDS011;592;48.764;9.174;2023-04-24T07:42:32;7.30;;;2.27;;
1204;SDS011;592;48.764;9.174;2023-04-24T07:44:59;3.77;;;1.87;;
1204;SDS011;592;48.764;9.174;2023-04-24T07:47:26;4.00;;;2.20;;
1204;SDS011;592;48.764;9.174;2023-04-24T07:49:53;3.47;;;1.90;;
1204;SDS011;592;48.764;9.174;2023-04-24T07:52:19;6.33;;;1.80;;
1204;SDS011;592;48.764;9.174;2023-04-24T07:54:46;4.33;;;2.10;;
1204;SDS011;592;48.764;9.174;2023-04-24T07:57:16;3.90;;;1.90;;
1204;SDS011;592;48.764;9.174;2023-04-24T07:59:42;5.00;;;2.10;;
1204;SDS011;592;48.764;9.174;2023-04-24T08:02:09;4.60;;;1.90;;
1204;SDS011;592;48.764;9.174;2023-04-24T08:04:36;3.60;;;2.07;;
1204;SDS011;592;48.764;9.174;2023-04-24T08:07:03;5.43;;;2.00;;
1204;SDS011;592;48.764;9.174;2023-04-24T08:09:30;4.57;;;2.07;;
1204;SDS011;592;48.764;9.174;2023-04-24T08:11:56;4.20;;;1.87;;
1204;SDS011;592;48.764;9.174;2023-04-24T08:14:25;3.50;;;1.90;;
1204;SDS011;592;48.764;9.174;2023-04-24T08:16:52;7.87;;;2.10;;
1204;SDS011;592;48.764;9.174;2023-04-24T08:19:20;3.67;;;1.93;;
1204;SDS011;592;48.764;9.174;2023-04-24T08:21:46;4.63;;;2.13;;
1204;SDS011;592;48.764;9.174;2023-04-24T08:24:13;4.20;;;1.97;;
1204;SDS011;592;48.764;9.174;2023-04-24T08:26:40;4.10;;;1.70;;
1204;SDS011;592;48.764;9.174;2023-04-24T08:29:06;4.77;;;1.97;;
1204;SDS011;592;48.764;9.174;2023-04-24T08:31:35;4.47;;;2.30;;
1204;SDS011;592;48.764;9.174;2023-04-24T08:34:01;6.07;;;2.00;;
1204;SDS011;592;48.764;9.174;2023-04-24T08:36:28;5.27;;;2.00;;
1204;SDS011;592;48.764;9.174;2023-04-24T08:38:55;3.57;;;2.23;;
1204;SDS011;592;48.764;9.174;2023-04-24T08:41:22;6.60;;;1.60;;
1204;SDS011;592;48.764;9.174;2023-04-24T08:43:51;4.30;;;1.70;;
1204;SDS011;592;48.764;9.174;2023-04-24T08:46:18;4.90;;;2.43;;
1204;SDS011;592;48.764;9.174;2023-04-24T08:48:47;5.47;;;2.10;;
1204;SDS011;592;48.764;9.174;2023-04-24T08:51:15;8.30;;;2.30;;
1204;SDS011;592;48.764;9.174;2023-04-24T08:53:42;5.37;;;2.17;;
1204;SDS011;592;48.764;9.174;2023-04-24T08:56:10;5.30;;;2.60;;
1204;SDS011;592;48.764;9.174;2023-04-24T08:58:37;3.70;;;2.00;;
1204;SDS011;592;48.764;9.174;2023-04-24T09:01:05;5.60;;;2.23;;
1204;SDS011;592;48.764;9.174;2023-04-24T09:03:32;4.47;;;2.30;;
1204;SDS011;592;48.764;9.174;2023-04-24T09:06:01;6.00;;;2.13;;
1204;SDS011;592;48.764;9.174;2023-04-24T09:08:29;4.50;;;2.10;;
1204;SDS011;592;48.764;9.174;2023-04-24T09:10:57;5.10;;;2.23;;
1204;SDS011;592;48.764;9.174;2023-04-24T09:13:26;5.00;;;2.20;;
1204;SDS011;592;48.764;9.174;2023-04-24T09:15:54;5.13;;;2.23;;
1204;SDS011;592;48.764;9.174;2023-04-24T09:18:22;4.70;;;2.33;;
1204;SDS011;592;48.764;9.174;2023-04-24T09:20:58;5.10;;;2.10;;
1204;SDS011;592;48.764;9.174;2023-04-24T09:23:32;4.13;;;1.90;;
1204;SDS011;592;48.764;9.174;2023-04-24T09:26:00;4.00;;;2.00;;
1204;SDS011;592;48.764;9.174;2023-04-24T09:28:30;4.70;;;2.30;;
1204;SDS011;592;48.764;9.174;2023-04-24T09:31:04;6.70;;;2.23;;
1204;SDS011;592;48.764;9.174;2023-04-24T09:33:33;4.93;;;2.20;;
1204;SDS011;592;48.764;9.174;2023-04-24T09:36:00;4.97;;;2.40;;
1204;SDS011;592;48.764;9.174;2023-04-24T09:38:31;4.50;;;2.30;;
1204;SDS011;592;48.764;9.174;2023-04-24T09:41:00;4.63;;;2.20;;
1204;SDS011;592;48.764;9.174;2023-04-24T09:43:28;4.60;;;2.10;;
1204;SDS011;592;48.764;9.174;2023-04-24T09:45:55;5.10;;;2.10;;
1204;SDS011;592;48.764;9.174;2023-04-24T09:48:30;5.83;;;2.40;;
1204;SDS011;592;48.764;9.174;2023-04-24T09:50:57;4.47;;;2.13;;
1204;SDS011;592;48.764;9.174;2023-04-24T09:53:26;12.03;;;2.70;;
1204;SDS011;592;48.764;9.174;2023-04-24T09:55:55;5.47;;;2.03;;
1204;SDS011;592;48.764;9.174;2023-04-24T09:58:24;3.50;;;2.00;;
1204;SDS011;592;48.764;9.174;2023-04-24T10:00:53;4.90;;;2.10;;
1204;SDS011;592;48.764;9.174;2023-04-24T10:03:21;3.93;;;2.10;;
1204;SDS011;592;48.764;9.174;2023-04-24T10:05:52;5.90;;;2.03;;
1204;SDS011;592;48.764;9.174;2023-04-24T10:08:19;8.10;;;2.43;;
1204;SDS011;592;48.764;9.174;2023-04-24T10:10:46;3.23;;;1.50;;
1204;SDS011;592;48.764;9.174;2023-04-24T10:13:14;3.47;;;1.70;;
1204;SDS011;592;48.764;9.174;2023-04-24T10:15:41;5.33;;;1.80;;
1204;SDS011;592;48.764;9.174;2023-04-24T10:18:08;13.97;;;2.47;;
1204;SDS011;592;48.764;9.174;2023-04-24T10:20:36;5.20;;;1.83;;
1204;SDS011;592;48.764;9.174;2023-04-24T10:23:06;3.73;;;1.80;;
1204;SDS011;592;48.764;9.174;2023-04-24T10:25:34;4.33;;;1.80;;
1204;SDS011;592;48.764;9.174;2023-04-24T10:28:02;3.20;;;1.53;;
1204;SDS011;592;48.764;9.174;2023-04-24T10:30:38;3.70;;;1.80;;
1204;SDS011;592;48.764;9.174;2023-04-24T10:33:12;10.47;;;2.00;;
1204;SDS011;592;48.764;9.174;2023-04-24T10:35:44;6.23;;;3.00;;
1204;SDS011;592;48.764;9.174;2023-04-24T10:38:14;3.63;;;1.70;;
1204;SDS011;592;48.764;9.174;2023-04-24T10:40:44;3.80;;;2.30;;
1204;SDS011;592;48.764;9.174;2023-04-24T10:43:11;4.00;;;1.80;;
1204;SDS011;592;48.764;9.174;2023-04-24T10:45:46;4.60;;;2.07;;
1204;SDS011;592;48.764;9.174;2023-04-24T10:48:27;4.23;;;2.17;;
1204;SDS011;592;48.764;9.174;2023-04-24T10:50:55;4.00;;;2.07;;
1204;SDS011;592;48.764;9.174;2023-04-24T10:53:22;4.30;;;1.80;;
1204;SDS011;592;48.764;9.174;2023-04-24T10:55:52;5.13;;;1.90;;
1204;SDS011;592;48.764;9.174;2023-04-24T10:58:26;4.03;;;2.00;;
1204;SDS011;592;48.764;9.174;2023-04-24T11:01:04;5.17;;;2.17;;
1204;SDS011;592;48.764;9.174;2023-04-24T11:03:32;8.37;;;2.10;;
1204;SDS011;592;48.764;9.174;2023-04-24T11:06:00;3.53;;;1.70;;
1204;SDS011;592;48.764;9.174;2023-04-24T11:08:30;5.60;;;2.00;;
1204;SDS011;592;48.764;9.174;2023-04-24T11:11:08;3.07;;;1.83;;
1204;SDS011;592;48.764;9.174;2023-04-24T11:16:38;4.50;;;1.40;;
1204;SDS011;592;48.764;9.174;2023-04-24T11:19:17;8.83;;;2.23;;
1204;SDS011;592;48.764;9.174;2023-04-24T11:21:47;7.47;;;2.00;;
1204;SDS011;592;48.764;9.174;2023-04-24T11:24:23;3.40;;;1.60;;
1204;SDS011;592;48.764;9.174;2023-04-24T11:26:51;3.93;;;1.60;;
1204;SDS011;592;48.764;9.174;2023-04-24T11:29:19;3.50;;;1.50;;
1204;SDS011;592;48.764;9.174;2023-04-24T11:31:48;3.20;;;1.60;;
1204;SDS011;592;48.764;9.174;2023-04-24T11:34:16;4.37;;;1.63;;
1204;SDS011;592;48.764;9.174;2023-04-24T11:36:44;5.77;;;2.30;;
1204;SDS011;592;48.764;9.174;2023-04-24T11:39:12;3.50;;;1.60;;
1204;SDS011;592;48.764;9.174;2023-04-24T11:41:39;3.73;;;2.00;;
1204;SDS011;592;48.764;9.174;2023-04-24T11:44:07;3.20;;;1.83;;
1204;SDS011;592;48.764;9.174;2023-04-24T11:46:35;4.50;;;1.93;;
1204;SDS011;592;48.764;9.174;2023-04-24T11:49:04;4.77;;;1.67;;
1204;SDS011;592;48.764;9.174;2023-04-24T11:51:31;4.20;;;1.83;;
1204;SDS011;592;48.764;9.174;2023-04-24T11:53:58;4.13;;;2.00;;
1204;SDS011;592;48.764;9.174;2023-04-24T11:56:25;3.10;;;1.70;;
1204;SDS011;592;48.764;9.174;2023-04-24T11:58:52;3.30;;;1.80;;
1204;SDS011;592;48.764;9.174;2023-04-24T12:01:20;4.80;;;2.20;;
1204;SDS011;592;48.764;9.174;2023-04-24T12:03:47;3.20;;;1.63;;
1204;SDS011;592;48.764;9.174;2023-04-24T12:06:17;3.63;;;1.70;;
1204;SDS011;592;48.764;9.174;2023-04-24T12:08:48;5.63;;;2.23;;
1204;SDS011;592;48.764;9.174;2023-04-24T12:11:15;3.67;;;2.20;;
1204;SDS011;592;48.764;9.174;2023-04-24T12:13:43;3.40;;;1.70;;
1204;SDS011;592;48.764;9.174;2023-04-24T12:16:13;3.43;;;1.97;;
1204;SDS011;592;48.764;9.174;2023-04-24T12:21:19;3.70;;;1.90;;
1204;SDS011;592;48.764;9.174;2023-04-24T12:23:47;3.00;;;1.73;;
1204;SDS011;592;48.764;9.174;2023-04-24T12:26:16;3.63;;;1.83;;
1204;SDS011;592;48.764;9.174;2023-04-24T12:28:45;4.40;;;1.63;;
1204;SDS011;592;48.764;9.174;2023-04-24T12:31:14;7.47;;;2.20;;
1204;SDS011;592;48.764;9.174;2023-04-24T12:33:41;4.30;;;2.00;;
1204;SDS011;592;48.764;9.174;2023-04-24T12:36:09;3.57;;;1.90;;
1204;SDS011;592;48.764;9.174;2023-04-24T12:38:39;4.30;;;2.33;;
1204;SDS011;592;48.764;9.174;2023-04-24T12:41:11;4.13;;;2.10;;
1204;SDS011;592;48.764;9.174;2023-04-24T12:43:50;3.27;;;1.83;;
1204;SDS011;592;48.764;9.174;2023-04-24T12:46:18;4.87;;;2.57;;
1204;SDS011;592;48.764;9.174;2023-04-24T12:48:44;3.70;;;1.60;;
1204;SDS011;592;48.764;9.174;2023-04-24T12:51:11;4.27;;;2.00;;
1204;SDS011;592;48.764;9.174;2023-04-24T12:53:40;3.63;;;2.00;;
1204;SDS011;592;48.764;9.174;2023-04-24T12:56:07;4.90;;;2.40;;
1204;SDS011;592;48.764;9.174;2023-04-24T12:58:34;5.33;;;1.90;;
1204;SDS011;592;48.764;9.174;2023-04-24T13:01:01;3.00;;;1.60;;
1204;SDS011;592;48.764;9.174;2023-04-24T13:03:28;3.20;;;1.40;;
1204;SDS011;592;48.764;9.174;2023-04-24T13:05:55;3.40;;;1.53;;
1204;SDS011;592;48.764;9.174;2023-04-24T13:08:22;12.30;;;1.93;;
1204;SDS011;592;48.764;9.174;2023-04-24T13:10:50;4.80;;;1.87;;
1204;SDS011;592;48.764;9.174;2023-04-24T13:13:18;6.33;;;2.00;;
1204;SDS011;592;48.764;9.174;2023-04-24T13:15:46;7.57;;;2.17;;
1204;SDS011;592;48.764;9.174;2023-04-24T13:18:12;10.50;;;2.10;;
1204;SDS011;592;48.764;9.174;2023-04-24T13:20:39;4.40;;;2.10;;
1204;SDS011;592;48.764;9.174;2023-04-24T13:23:06;3.27;;;1.70;;
1204;SDS011;592;48.764;9.174;2023-04-24T13:25:34;5.40;;;2.27;;
1204;SDS011;592;48.764;9.174;2023-04-24T13:28:03;5.73;;;1.97;;
1204;SDS011;592;48.764;9.174;2023-04-24T13:30:30;4.10;;;2.10;;
1204;SDS011;592;48.764;9.174;2023-04-24T13:32:57;3.97;;;2.10;;
1204;SDS011;592;48.764;9.174;2023-04-24T13:35:24;3.50;;;1.90;;
1204;SDS011;592;48.764;9.174;2023-04-24T13:37:50;12.70;;;2.70;;
1204;SDS011;592;48.764;9.174;2023-04-24T13:40:17;4.67;;;2.30;;
1204;SDS011;592;48.764;9.174;2023-04-24T13:42:44;4.10;;;1.93;;
1204;SDS011;592;48.764;9.174;2023-04-24T13:45:12;4.90;;;2.50;;
1204;SDS011;592;48.764;9.174;2023-04-24T13:47:39;3.70;;;2.10;;
1204;SDS011;592;48.764;9.174;2023-04-24T13:50:06;5.07;;;2.30;;
1204;SDS011;592;48.764;9.174;2023-04-24T13:52:34;3.67;;;2.03;;
1204;SDS011;592;48.764;9.174;2023-04-24T13:55:01;4.23;;;1.80;;
1204;SDS011;592;48.764;9.174;2023-04-24T13:57:27;4.93;;;2.60;;
1204;SDS011;592;48.764;9.174;2023-04-24T13:59:55;3.80;;;2.10;;
1204;SDS011;592;48.764;9.174;2023-04-24T14:02:27;4.60;;;2.00;;
1204;SDS011;592;48.764;9.174;2023-04-24T14:04:54;5.50;;;2.83;;
1204;SDS011;592;48.764;9.174;2023-04-24T14:07:20;3.87;;;2.03;;
1204;SDS011;592;48.764;9.174;2023-04-24T14:09:48;3.67;;;1.90;;
1204;SDS011;592;48.764;9.174;2023-04-24T14:12:16;3.80;;;2.20;;
1204;SDS011;592;48.764;9.174;2023-04-24T14:14:44;3.97;;;1.93;;
1204;SDS011;592;48.764;9.174;2023-04-24T14:17:12;3.90;;;2.00;;
1204;SDS011;592;48.764;9.174;2023-04-24T14:19:40;4.20;;;2.43;;
1204;SDS011;592;48.764;9.174;2023-04-24T14:22:07;5.33;;;1.90;;
1204;SDS011;592;48.764;9.174;2023-04-24T14:24:33;4.37;;;2.47;;
1204;SDS011;592;48.764;9.174;2023-04-24T14:27:01;4.07;;;2.30;;
1204;SDS011;592;48.764;9.174;2023-04-24T14:29:28;3.30;;;1.90;;
1204;SDS011;592;48.764;9.174;2023-04-24T14:31:54;3.50;;;2.03;;
1204;SDS011;592;48.764;9.174;2023-04-24T14:34:21;3.50;;;1.90;;
1204;SDS011;592;48.764;9.174;2023-04-24T14:36:49;3.33;;;1.70;;
1204;SDS011;592;48.764;9.174;2023-04-24T14:39:16;3.50;;;1.90;;
1204;SDS011;592;48.764;9.174;2023-04-24T14:41:42;3.50;;;1.77;;
1204;SDS011;592;48.764;9.174;2023-04-24T14:44:09;3.50;;;1.77;;
1204;SDS011;592;48.764;9.174;2023-04-24T14:46:36;3.40;;;1.80;;
1204;SDS011;592;48.764;9.174;2023-04-24T14:49:03;4.23;;;2.60;;
1204;SDS011;592;48.764;9.174;2023-04-24T14:51:30;3.90;;;2.40;;
1204;SDS011;592;48.764;9.174;2023-04-24T14:53:58;4.80;;;2.33;;
1204;SDS011;592;48.764;9.174;2023-04-24T14:56:25;3.67;;;2.13;;
1204;SDS011;592;48.764;9.174;2023-04-24T14:58:51;5.60;;;2.30;;
1204;SDS011;592;48.764;9.174;2023-04-24T15:01:18;4.00;;;2.33;;
1204;SDS011;592;48.764;9.174;2023-04-24T15:03:45;4.13;;;2.30;;
1204;SDS011;592;48.764;9.174;2023-04-24T15:06:12;4.33;;;2.40;;
1204;SDS011;592;48.764;9.174;2023-04-24T15:08:38;3.73;;;2.13;;
1204;SDS011;592;48.764;9.174;2023-04-24T15:11:06;4.50;;;2.63;;
1204;SDS011;592;48.764;9.174;2023-04-24T15:13:33;4.60;;;2.50;;
1204;SDS011;592;48.764;9.174;2023-04-24T15:16:00;4.67;;;2.67;;
1204;SDS011;592;48.764;9.174;2023-04-24T15:18:27;6.00;;;2.80;;
1204;SDS011;592;48.764;9.174;2023-04-24T15:20:54;4.17;;;2.50;;
1204;SDS011;592;48.764;9.174;2023-04-24T15:23:21;5.00;;;2.40;;
1204;SDS011;592;48.764;9.174;2023-04-24T15:25:48;3.87;;;2.40;;
1204;SDS011;592;48.764;9.174;2023-04-24T15:28:17;4.60;;;2.33;;
1204;SDS011;592;48.764;9.174;2023-04-24T15:30:43;4.03;;;2.33;;
1204;SDS011;592;48.764;9.174;2023-04-24T15:33:12;5.43;;;2.50;;
1204;SDS011;592;48.764;9.174;2023-04-24T15:35:38;4.73;;;2.50;;
1204;SDS011;592;48.764;9.174;2023-04-24T15:38:06;4.87;;;2.73;;